createdAt,value
2023-02-15T00:02:34.180Z,86.47
2023-02-15T00:07:38.103Z,86.21
2023-02-15T00:12:43.054Z,86.65
2023-02-15T00:17:46.919Z,86.59
2023-02-15T00:22:50.675Z,85.59
2023-02-15T00:27:54.940Z,84.97
2023-02-15T00:32:58.696Z,85.09
2023-02-15T00:38:03.012Z,85.05
2023-02-15T00:43:07.752Z,84.89
2023-02-15T00:48:12.895Z,84.96
2023-02-15T00:53:16.998Z,84.92
2023-02-15T00:58:20.862Z,84.85
2023-02-15T01:03:24.698Z,85.03
2023-02-15T01:08:29.048Z,85.20
2023-02-15T01:13:33.584Z,85.34
2023-02-15T01:18:37.540Z,85.42
2023-02-15T01:23:42.813Z,85.40
2023-02-15T01:28:46.932Z,85.75
2023-02-15T01:33:50.715Z,86.38
2023-02-15T01:38:55.495Z,86.04
2023-02-15T01:44:01.477Z,85.44
2023-02-15T01:49:20.626Z,85.54
2023-02-15T01:54:37.262Z,85.99
2023-02-15T01:59:44.897Z,86.27
2023-02-15T02:04:50.975Z,86.14
2023-02-15T02:09:56.164Z,87.31
2023-02-15T02:15:02.117Z,86.27
2023-02-15T02:20:48.386Z,85.87
2023-02-15T02:26:25.646Z,86.00
2023-02-15T02:32:11.148Z,86.14
2023-02-15T02:37:40.809Z,86.15
2023-02-15T02:43:13.127Z,86.59
2023-02-15T02:48:21.771Z,87.40
2023-02-15T02:53:27.632Z,87.76
2023-02-15T02:59:00.036Z,87.95
2023-02-15T03:04:13.896Z,87.88
2023-02-15T03:09:25.559Z,88.06
2023-02-15T03:14:29.783Z,88.20
2023-02-15T03:19:35.954Z,88.26
2023-02-15T03:25:18.784Z,88.25
2023-02-15T03:30:30.152Z,88.20
2023-02-15T03:35:47.224Z,88.30
2023-02-15T03:41:10.639Z,88.30
2023-02-15T03:46:22.841Z,88.34
2023-02-15T03:51:39.263Z,88.40
2023-02-15T03:57:04.051Z,88.48
2023-02-15T04:02:22.551Z,88.50
2023-02-15T04:07:26.846Z,88.60
2023-02-15T04:12:30.627Z,88.65
2023-02-15T04:17:34.613Z,88.68
2023-02-15T04:22:56.974Z,88.81
2023-02-15T04:28:01.330Z,89.03
2023-02-15T04:33:05.288Z,89.09
2023-02-15T04:38:09.107Z,89.06
2023-02-15T04:43:12.895Z,88.98
2023-02-15T04:48:20.558Z,88.84
2023-02-15T04:53:24.276Z,88.60
2023-02-15T04:58:29.310Z,88.20
2023-02-15T05:03:33.450Z,88.06
2023-02-15T05:08:37.534Z,87.99
2023-02-15T05:13:41.171Z,88.01
2023-02-15T05:18:45.272Z,88.07
2023-02-15T05:23:49.063Z,88.01
2023-02-15T05:28:52.817Z,88.07
2023-02-15T05:33:56.629Z,87.96
2023-02-15T05:39:00.959Z,88.12
2023-02-15T05:44:04.809Z,88.24
2023-02-15T05:49:09.275Z,88.26
2023-02-15T05:54:15.988Z,88.23
2023-02-15T05:59:20.961Z,88.26
2023-02-15T06:04:24.848Z,88.34
2023-02-15T06:09:28.589Z,88.25
2023-02-15T06:14:35.555Z,88.35
2023-02-15T06:19:42.279Z,88.48
2023-02-15T06:24:46.076Z,88.52
2023-02-15T06:29:49.787Z,88.57
2023-02-15T06:34:53.665Z,88.93
2023-02-15T06:40:03.221Z,89.56
2023-02-15T06:45:10.913Z,89.55
2023-02-15T06:50:14.619Z,89.65
2023-02-15T06:55:18.576Z,89.73
2023-02-15T07:00:24.395Z,89.80
2023-02-15T07:05:33.064Z,89.80
2023-02-15T07:10:36.823Z,89.69
2023-02-15T07:15:40.609Z,89.76
2023-02-15T07:20:44.425Z,89.75
2023-02-15T07:25:48.178Z,89.63
2023-02-15T07:30:52.791Z,89.32
2023-02-15T07:36:02.552Z,89.05
2023-02-15T07:41:08.989Z,88.88
2023-02-15T07:46:15.148Z,88.89
2023-02-15T07:51:19.011Z,88.56
2023-02-15T07:56:22.646Z,88.33
2023-02-15T08:01:32.482Z,87.69
2023-02-15T08:06:38.692Z,87.31
2023-02-15T08:11:42.853Z,87.25
2023-02-15T08:16:51.711Z,87.05
2023-02-15T08:22:06.933Z,87.13
2023-02-15T08:27:12.531Z,86.99
2023-02-15T08:32:16.502Z,86.68
2023-02-15T08:37:20.449Z,86.44
2023-02-15T08:42:24.388Z,86.25
2023-02-15T08:47:28.197Z,85.76
2023-02-15T08:52:32.464Z,85.79
2023-02-15T08:57:36.214Z,84.92
2023-02-15T09:02:40.071Z,84.71
2023-02-15T09:07:43.866Z,84.90
2023-02-15T09:12:47.749Z,84.71
2023-02-15T09:17:51.663Z,83.56
2023-02-15T09:22:58.080Z,82.48
2023-02-15T09:28:02.791Z,81.47
2023-02-15T09:33:06.457Z,81.79
2023-02-15T09:38:13.205Z,81.66
2023-02-15T09:43:44.906Z,81.97
2023-02-15T09:48:55.950Z,81.80
2023-02-15T09:54:28.523Z,81.41
2023-02-15T09:59:35.819Z,80.54
2023-02-15T10:04:58.737Z,80.06
2023-02-15T10:10:28.650Z,80.25
2023-02-15T10:15:40.135Z,78.58
2023-02-15T10:21:04.692Z,78.06
2023-02-15T10:26:18.450Z,77.51
2023-02-15T10:31:32.358Z,77.11
2023-02-15T10:36:41.905Z,76.67
2023-02-15T10:42:08.646Z,76.65
2023-02-15T10:47:39.977Z,75.60
2023-02-15T10:53:28.012Z,76.56
2023-02-15T10:59:09.299Z,76.14
2023-02-15T11:04:40.427Z,75.64
2023-02-15T11:09:49.867Z,74.00
2023-02-15T11:14:58.068Z,75.53
2023-02-15T11:20:17.259Z,75.08
2023-02-15T11:25:26.027Z,73.30
2023-02-15T11:30:46.125Z,74.21
2023-02-15T11:36:00.791Z,73.81
2023-02-15T11:41:11.700Z,73.49
2023-02-15T11:46:16.294Z,73.22
2023-02-15T11:51:23.958Z,73.53
2023-02-15T11:56:27.996Z,71.59
2023-02-15T12:01:39.675Z,70.36
2023-02-15T12:06:50.097Z,70.95
2023-02-15T12:11:54.781Z,70.05
2023-02-15T12:16:58.771Z,70.63
2023-02-15T12:22:04.218Z,70.78
2023-02-15T12:27:17.045Z,69.74
2023-02-15T12:32:26.364Z,69.44
2023-02-15T12:37:33.990Z,68.48
2023-02-15T12:42:46.229Z,69.86
2023-02-15T12:48:17.181Z,69.29
2023-02-15T12:53:25.711Z,69.35
2023-02-15T12:58:31.774Z,67.65
2023-02-15T13:03:36.682Z,67.29
2023-02-15T13:08:53.264Z,67.45
2023-02-15T13:13:59.979Z,68.16
2023-02-15T13:19:35.072Z,67.88
2023-02-15T13:24:45.551Z,68.07
2023-02-15T13:30:00.847Z,68.41
2023-02-15T13:35:08.403Z,68.16
2023-02-15T13:40:17.396Z,66.38
2023-02-15T13:45:57.152Z,67.55
2023-02-15T13:51:14.932Z,68.03
2023-02-15T13:56:46.266Z,67.46
2023-02-15T14:02:00.402Z,67.93
2023-02-15T14:07:28.443Z,67.95
2023-02-15T14:13:12.239Z,67.26
2023-02-15T14:18:38.924Z,68.01
2023-02-15T14:24:31.496Z,66.58
2023-02-15T14:29:46.924Z,67.72
2023-02-15T14:34:54.736Z,66.55
2023-02-15T14:40:55.704Z,65.86
2023-02-15T14:46:33.261Z,65.17
2023-02-15T14:52:09.370Z,66.84
2023-02-15T14:57:14.394Z,66.79
2023-02-15T15:03:05.781Z,67.29
2023-02-15T15:08:24.309Z,67.77
2023-02-15T15:20:08.585Z,67.71
2023-02-15T15:25:32.633Z,67.70
2023-02-15T15:30:36.441Z,68.46
2023-02-15T15:35:58.776Z,68.86
2023-02-15T15:41:31.775Z,69.11
2023-02-15T15:47:30.248Z,69.10
2023-02-15T15:52:40.746Z,69.45
2023-02-15T15:57:47.957Z,69.88
2023-02-15T16:02:54.507Z,70.38
2023-02-15T16:07:59.224Z,71.10
2023-02-15T16:13:04.393Z,71.58
2023-02-15T16:18:16.853Z,72.03
2023-02-15T16:23:56.246Z,72.58
2023-02-15T16:29:01.278Z,73.01
2023-02-15T16:34:16.746Z,73.92
2023-02-15T16:39:22.973Z,75.34
2023-02-15T16:44:34.889Z,75.34
2023-02-15T16:49:40.901Z,76.07
2023-02-15T16:54:46.905Z,76.29
2023-02-15T16:59:54.181Z,76.58
2023-02-15T17:05:15.545Z,77.13
2023-02-15T17:10:40.732Z,77.40
2023-02-15T17:16:09.148Z,77.34
2023-02-15T17:21:19.836Z,77.53
2023-02-15T17:26:31.683Z,78.00
2023-02-15T17:31:38.944Z,78.06
2023-02-15T17:37:04.245Z,78.41
2023-02-15T17:42:09.903Z,78.40
2023-02-15T17:47:22.790Z,79.09
2023-02-15T17:52:29.708Z,79.65
2023-02-15T17:57:35.830Z,80.29
2023-02-15T18:03:02.057Z,80.82
2023-02-15T18:08:34.360Z,81.46
2023-02-15T18:13:39.664Z,81.50
2023-02-15T18:18:46.892Z,81.50
2023-02-15T18:23:54.630Z,81.44
2023-02-15T18:29:01.186Z,81.51
2023-02-15T18:34:47.957Z,81.66
2023-02-15T18:39:55.356Z,81.79
2023-02-15T18:45:38.865Z,81.77
2023-02-15T18:50:46.897Z,82.29
2023-02-15T18:55:53.622Z,82.61
2023-02-15T19:01:03.714Z,83.30
2023-02-15T19:06:18.576Z,83.92
2023-02-15T19:11:28.489Z,84.38
2023-02-15T19:16:38.812Z,84.96
2023-02-15T19:21:49.168Z,85.41
2023-02-15T19:26:56.561Z,85.14
2023-02-15T19:32:04.199Z,85.11
2023-02-15T19:37:27.959Z,85.22
2023-02-15T19:42:36.521Z,85.51
2023-02-15T19:47:42.877Z,85.61
2023-02-15T19:52:49.269Z,86.15
2023-02-15T19:57:58.283Z,86.15
2023-02-15T20:03:08.161Z,86.05
2023-02-15T20:08:23.609Z,85.59
2023-02-15T20:13:35.716Z,86.43
2023-02-15T20:18:49.346Z,86.19
2023-02-15T20:23:58.652Z,86.63
2023-02-15T20:29:04.402Z,87.21
2023-02-15T20:34:12.380Z,87.23
2023-02-15T20:39:21.517Z,87.24
2023-02-15T20:44:32.420Z,87.21
2023-02-15T20:49:39.440Z,87.39
2023-02-15T20:54:45.803Z,87.58
2023-02-15T20:59:52.681Z,87.64
2023-02-15T21:04:59.107Z,87.49
2023-02-15T21:10:07.068Z,87.35
2023-02-15T21:15:42.202Z,87.28
2023-02-15T21:20:50.783Z,87.35
2023-02-15T21:26:01.488Z,87.29
2023-02-15T21:31:13.751Z,86.49
2023-02-15T21:36:24.064Z,85.88
2023-02-15T21:41:48.515Z,85.05
2023-02-15T21:47:13.211Z,85.82
2023-02-15T21:52:23.330Z,85.88
2023-02-15T21:57:28.023Z,86.03
2023-02-15T22:02:34.602Z,86.38
2023-02-15T22:07:39.784Z,86.18
2023-02-15T22:12:44.260Z,85.49
2023-02-15T22:17:49.225Z,85.22
2023-02-15T22:22:54.660Z,85.34
2023-02-15T22:27:58.349Z,85.47
2023-02-15T22:33:02.178Z,85.66
2023-02-15T22:38:06.721Z,85.65
2023-02-15T22:43:23.079Z,85.65
2023-02-15T22:48:27.846Z,86.06
2023-02-15T22:53:31.863Z,85.88
2023-02-15T22:58:35.818Z,85.79
2023-02-15T23:03:41.420Z,85.67
2023-02-15T23:08:47.528Z,86.34
2023-02-15T23:13:51.705Z,87.21
2023-02-15T23:18:56.258Z,86.77
2023-02-15T23:24:15.420Z,87.35
2023-02-15T23:29:22.052Z,87.95
2023-02-15T23:34:32.039Z,88.43
2023-02-15T23:39:54.462Z,88.80
2023-02-15T23:44:58.851Z,87.18
2023-02-15T23:50:02.898Z,86.47
2023-02-15T23:55:06.945Z,87.84
